CPX779 Details

Departure: Chinggis Khaan International Airport (ZMUB)
Arrival: Incheon International Airport (RKSI)
Route: SND A575 PIDOX V1 PAMDA A326 DONVO G597 GONAV GONAV2M


Current Weather Information
ZMUB 252330Z VRB01MPS 9999 FEW033 BKN100 M03/M15 Q1009 NOSIG RMK QFE650.3 36 MOP
RKSI 252330Z 06002KT 3300 BR SCT005 BKN020 07/04 Q1018 NOSIG